Aberdeen, SD (57401)

10:54 PM CST on February 12, 2016 (GMT -0600)
St. Mary's Church | | Change Station
CLOSE
Current Station
Personal Weather Station
Location: Aberdeen, SD
Elevation: 1302 ft
Nearby Weather Stations

Elev 1302 ft 45.47 °N, 98.48 °W | Updated 1 second ago

Clear
Clear
0.5 °F
Feels Like 0 °F
N
1.1
Wind Variable Wind from East
Gusts 3.0 mph

Today
High -- | Low -- °F
--% Chance of Precip.
Yesterday
High -- | Low -- °F
Precip. -- in
Pressure 30.74 in
Visibility 10.0 miles
Clouds Clear
Windchill 0 °F
Dew Point -6 °F
Humidity 75%
Rainfall 0.00 in
Snow Depth Not available.
7:40 AM 5:56 PM
Waxing Crescent, 27% visible
METAR KABR 130353Z AUTO 07003KT 10SM CLR M18/M23 A3063 RMK AO2 SLP408 T11831228
Pressure 30.74 in
Visibility 10.0 miles
Clouds Clear
Windchill 0 °F
Dew Point -6 °F
Humidity 75%
Rainfall 0.00 in
Snow Depth Not available.
7:40 AM 5:56 PM
Waxing Crescent, 27% visible
METAR KABR 130353Z AUTO 07003KT 10SM CLR M18/M23 A3063 RMK AO2 SLP408 T11831228

10-Day Weather Forecast

Almanac

Astronomy

Feb. 12, 2016 Rise Set
Actual Time
Civil Twilight
Nautical Twilight
Astronomical Twilight
Moon
Length of Visible Light
Length of Day
Tomorrow will be .
, % of the Moon is Illuminated

Today's Extremes

State Highs State Lows

Community

WunderPhotos

Upload Photos

1,892,501 photos uploaded!

WunderBlog® & News

Nearby

Air Quality

  Air Quality AQ Index Pollutant
Not available.

Snow Depth

Station Depth Elevation

Earthquake Activity

City Distance Mag. Time & Date
Minimum magnitude displayed is 2.5.

Coastal Water Temperatures

Place Temperature

Stations

Nearby Weather Stations

Station Location Temp. Windchill Dew Point Humidity Wind Precip. Elev Updated Type
                   

Watches & Warnings

There are currently no watches in effect.